Gunnison Bend Reservoir




Date Hourly Average Reservoir Capacity (AF) Canal Flow (cfs) Battery Voltage (V) Reservoir Height (ft) Gate Height 1 (ft) Gate Height 2 (ft)
03/01/2018 1,735 0.00 13.31 7.98 0.02 -0.02
03/02/2018 1,740 0.00 13.15 7.99 0.02 -0.02
03/03/2018 1,731 0.00 13.40 7.97 0.02 -0.02
03/04/2018 1,733 0.00 13.31 7.98 0.02 -0.02
03/05/2018 1,762 0.00 13.17 8.04 0.02 -0.02
03/06/2018 1,767 0.00 13.47 8.05 0.02 -0.02
03/07/2018 1,772 0.00 13.43 8.06 0.02 -0.02
03/08/2018 1,777 0.00 13.39 8.07 0.02 -0.02
03/09/2018 1,782 0.00 13.39 8.08 0.02 -0.02
03/10/2018 1,786 0.00 13.29 8.09 0.02 -0.02
03/11/2018 1,791 3.29 13.31 8.10 0.19 -0.02
03/13/2018 1,772 6.63 13.27 8.06 0.28 -0.02
03/14/2018 1,757 6.03 13.26 8.03 0.28 -0.02
03/15/2018 1,740 6.12 13.19 7.99 0.28 -0.02
03/16/2018 1,748 6.23 13.25 8.01 0.27 -0.02
03/17/2018 1,740 6.20 13.42 7.99 0.27 -0.02
03/18/2018 1,735 6.13 13.10 7.98 0.28 -0.02
03/19/2018 1,740 6.20 13.13 7.99 0.27 -0.02
03/20/2018 1,732 6.16 13.44 7.97 0.28 -0.02
03/21/2018 1,722 6.18 13.38 7.95 0.28 -0.02
03/22/2018 1,706 6.20 13.33 7.91 0.28 -0.02
03/23/2018 1,677 6.43 13.08 7.84 0.28 -0.02
03/24/2018 1,698 6.97 13.36 7.89 0.27 -0.02
03/25/2018 1,687 6.66 13.38 7.87 0.28 -0.02
03/26/2018 1,686 6.21 13.36 7.86 0.28 -0.02
03/27/2018 1,677 6.15 13.48 7.84 0.28 -0.02
03/28/2018 1,673 6.21 13.47 7.83 0.28 -0.02
03/29/2018 1,686 6.20 13.38 7.86 0.28 -0.02
03/30/2018 1,700 6.21 13.39 7.90 0.28 -0.02
03/31/2018 1,714 6.23 13.37 7.93 0.28 -0.02
Average 4.09
Maximum 6.97
Minimum 0.00
Total Volume (AF) 243.20